Time;durP1;ratioP1;P1;durP2;ratioP2;P2;SDS_P1;SDS_P2;PMS_P1;PMS_P2;Temp;Humidity;BMP_temperature;BMP_pressure;BME280_temperature;BME280_humidity;BME280_pressure;Samples;Min_cycle;Max_cycle;Signal;HPM_P1;HPM_P2
2022/07/22 00:01:57;;;;;;;5.55;1.75;;;16.40;99.90;;;;;;4977513;28;20042;-78
2022/07/22 00:04:22;;;;;;;6.72;1.52;;;16.70;99.90;;;;;;4994094;28;20052;-79
2022/07/22 00:06:48;;;;;;;9.38;1.60;;;16.30;99.90;;;;;;4994348;28;20039;-79
2022/07/22 00:09:14;;;;;;;8.70;1.90;;;16.30;99.90;;;;;;4994468;28;20082;-79
2022/07/22 00:11:40;;;;;;;7.93;1.92;;;16.30;99.90;;;;;;4976975;28;20050;-78
2022/07/22 00:14:05;;;;;;;10.77;2.08;;;16.20;99.90;;;;;;4994963;28;20109;-79
2022/07/22 00:16:32;;;;;;;7.90;1.70;;;16.20;99.90;;;;;;4994632;28;20125;-78
2022/07/22 00:18:58;;;;;;;7.47;2.17;;;16.20;99.90;;;;;;4996803;28;20054;-79
2022/07/22 00:21:23;;;;;;;11.65;2.47;;;16.20;99.90;;;;;;5000614;28;20153;-80
2022/07/22 00:23:49;;;;;;;8.88;2.25;;;16.20;99.90;;;;;;4998740;28;20050;-79
2022/07/22 00:26:15;;;;;;;8.27;2.20;;;16.20;99.90;;;;;;4995552;28;20085;-79
2022/07/22 00:28:41;;;;;;;8.73;2.33;;;16.10;99.90;;;;;;4993526;28;20478;-80
2022/07/22 00:31:06;;;;;;;9.68;2.85;;;16.10;99.90;;;;;;4993328;28;20054;-79
2022/07/22 00:33:32;;;;;;;12.90;2.50;;;16.10;99.90;;;;;;4994563;28;20469;-80
2022/07/22 00:35:58;;;;;;;7.93;3.10;;;16.10;99.90;;;;;;4960984;28;20042;-78
2022/07/22 00:38:23;;;;;;;7.90;2.50;;;16.10;99.90;;;;;;4993253;28;20047;-80
2022/07/22 00:40:49;;;;;;;11.38;2.90;;;16.00;99.90;;;;;;4993847;28;20397;-81
2022/07/22 00:43:15;;;;;;;12.63;2.70;;;16.00;99.90;;;;;;4994075;28;20066;-78
2022/07/22 00:45:41;;;;;;;8.50;2.80;;;16.10;99.90;;;;;;4993956;28;20053;-78
2022/07/22 00:48:06;;;;;;;10.73;2.88;;;16.00;99.90;;;;;;4993027;28;20379;-78
2022/07/22 00:50:32;;;;;;;11.13;2.90;;;16.00;99.90;;;;;;4992914;28;20049;-78
2022/07/22 00:52:58;;;;;;;9.15;2.72;;;16.00;99.90;;;;;;4993959;28;20042;-79
2022/07/22 00:55:24;;;;;;;9.05;2.67;;;16.10;99.90;;;;;;4992288;28;20149;-79
2022/07/22 00:57:50;;;;;;;11.35;2.50;;;16.10;99.90;;;;;;4993652;28;20129;-79
2022/07/22 01:00:20;;;;;;;9.55;2.83;;;16.10;99.90;;;;;;4976933;28;20403;-80
2022/07/22 01:02:46;;;;;;;10.23;2.40;;;16.10;99.90;;;;;;4994797;28;20050;-81
2022/07/22 01:05:12;;;;;;;13.23;3.22;;;16.10;99.90;;;;;;4997732;28;20047;-79
2022/07/22 01:07:38;;;;;;;11.80;2.67;;;16.20;99.90;;;;;;4997776;28;20053;-80
2022/07/22 01:10:05;;;;;;;10.85;2.50;;;16.20;99.90;;;;;;4980366;28;20056;-80
2022/07/22 01:12:32;;;;;;;8.18;2.58;;;16.20;99.90;;;;;;4997805;28;20138;-79
2022/07/22 01:14:58;;;;;;;8.35;2.60;;;16.20;99.90;;;;;;4980617;28;20053;-79
2022/07/22 01:17:24;;;;;;;10.65;2.63;;;16.10;99.90;;;;;;4996621;28;20054;-80
2022/07/22 01:19:50;;;;;;;10.05;2.97;;;16.10;99.90;;;;;;4996618;28;20507;-80
2022/07/22 01:22:16;;;;;;;14.45;2.47;;;16.10;99.90;;;;;;4996690;28;20080;-79
2022/07/22 01:24:42;;;;;;;9.13;2.40;;;16.20;99.90;;;;;;4995817;28;20047;-79
2022/07/22 01:27:08;;;;;;;6.65;2.30;;;16.10;99.90;;;;;;4997306;28;20098;-79
2022/07/22 01:29:34;;;;;;;8.25;2.38;;;16.20;99.90;;;;;;4995463;28;20092;-79
2022/07/22 01:32:00;;;;;;;10.27;2.60;;;16.20;99.90;;;;;;4995420;28;20552;-80
2022/07/22 01:34:25;;;;;;;7.00;2.13;;;16.10;99.90;;;;;;4994752;28;20093;-80
2022/07/22 01:36:51;;;;;;;8.32;1.95;;;16.20;99.90;;;;;;4995956;28;20085;-80
2022/07/22 01:39:17;;;;;;;8.70;2.25;;;16.10;99.90;;;;;;4994721;28;20053;-80
2022/07/22 01:41:43;;;;;;;7.53;2.25;;;16.20;99.90;;;;;;4995945;28;20046;-79
2022/07/22 01:44:09;;;;;;;10.30;2.40;;;16.10;99.90;;;;;;4995898;28;20043;-79
2022/07/22 01:46:35;;;;;;;8.73;2.25;;;16.10;99.90;;;;;;4995915;28;20493;-79
2022/07/22 01:49:01;;;;;;;7.30;1.88;;;16.10;99.90;;;;;;4994905;28;20042;-82
2022/07/22 01:51:26;;;;;;;10.20;2.20;;;16.10;99.90;;;;;;4995047;28;20522;-80
2022/07/22 01:53:52;;;;;;;8.23;1.90;;;16.10;99.90;;;;;;4995515;28;20046;-80
2022/07/22 01:56:19;;;;;;;6.75;2.03;;;16.10;99.90;;;;;;4995209;28;20047;-80
2022/07/22 01:58:44;;;;;;;8.45;1.58;;;16.10;99.90;;;;;;4994760;28;20045;-79
2022/07/22 02:01:10;;;;;;;6.20;1.75;;;16.10;99.90;;;;;;4995844;28;20046;-80
2022/07/22 02:03:36;;;;;;;13.15;2.10;;;16.10;99.90;;;;;;4995374;28;20042;-81
2022/07/22 02:06:03;;;;;;;6.93;1.63;;;16.10;99.90;;;;;;4995472;28;20102;-80
2022/07/22 02:08:29;;;;;;;8.63;1.85;;;16.10;99.90;;;;;;4995524;28;20054;-79
2022/07/22 02:10:55;;;;;;;6.95;1.50;;;16.10;99.90;;;;;;4995536;28;20548;-80
2022/07/22 02:13:21;;;;;;;6.10;1.55;;;16.10;99.90;;;;;;4977725;28;20157;-79
2022/07/22 02:15:46;;;;;;;7.68;1.65;;;16.10;99.90;;;;;;4995841;28;20042;-81
2022/07/22 02:18:14;;;;;;;8.73;2.70;;;16.10;99.90;;;;;;4995289;28;20093;-80
2022/07/22 02:20:40;;;;;;;9.45;1.92;;;16.10;99.90;;;;;;4995457;28;20046;-79
2022/07/22 02:23:06;;;;;;;8.10;1.52;;;16.10;99.90;;;;;;4995008;28;20089;-79
2022/07/22 02:25:33;;;;;;;5.68;1.25;;;16.10;99.90;;;;;;4994651;28;20108;-80
2022/07/22 02:27:59;;;;;;;9.25;1.65;;;16.10;99.90;;;;;;4952718;28;1224559;-80
2022/07/22 02:30:25;;;;;;;7.20;1.58;;;16.10;99.90;;;;;;4995093;28;20499;-80
2022/07/22 02:32:50;;;;;;;5.00;1.50;;;16.10;99.90;;;;;;4996175;28;20046;-79
2022/07/22 02:35:16;;;;;;;4.97;1.35;;;16.00;99.90;;;;;;4996288;28;20046;-79
2022/07/22 02:37:42;;;;;;;7.53;1.73;;;16.00;99.90;;;;;;4994855;28;20073;-80
2022/07/22 02:40:08;;;;;;;3.78;1.35;;;16.00;99.90;;;;;;4995193;28;20379;-80
2022/07/22 02:42:34;;;;;;;8.10;1.30;;;16.00;99.90;;;;;;4995253;28;20136;-80
2022/07/22 02:45:00;;;;;;;6.78;1.42;;;16.00;99.90;;;;;;4995967;28;20039;-79
2022/07/22 02:47:26;;;;;;;7.18;1.45;;;16.00;99.90;;;;;;4994924;28;20376;-81
2022/07/22 02:49:51;;;;;;;7.57;1.85;;;16.00;99.90;;;;;;4995898;28;20050;-79
2022/07/22 02:52:17;;;;;;;8.95;1.50;;;16.00;99.90;;;;;;4995607;28;20509;-79
2022/07/22 02:54:43;;;;;;;4.68;1.30;;;16.00;99.90;;;;;;4994303;28;20084;-78
2022/07/22 02:57:09;;;;;;;6.38;1.67;;;16.00;99.90;;;;;;4995790;28;20097;-79
2022/07/22 02:59:35;;;;;;;8.35;1.33;;;16.00;99.90;;;;;;4995826;28;20137;-79
2022/07/22 03:02:01;;;;;;;5.93;1.48;;;15.90;99.90;;;;;;4994760;28;20118;-80
2022/07/22 03:04:26;;;;;;;3.58;0.98;;;15.90;99.90;;;;;;4994641;28;20058;-78
2022/07/22 03:06:52;;;;;;;4.50;0.93;;;15.90;99.90;;;;;;4977812;28;20042;-79
2022/07/22 03:09:19;;;;;;;6.30;1.10;;;15.90;99.90;;;;;;4995616;28;20053;-77
2022/07/22 03:11:44;;;;;;;5.60;1.25;;;15.90;99.90;;;;;;4995058;28;20470;-79
2022/07/22 03:14:11;;;;;;;6.00;1.20;;;15.90;99.90;;;;;;4995540;28;20085;-80
2022/07/22 03:16:37;;;;;;;4.03;1.40;;;15.90;99.90;;;;;;4995456;28;20042;-80
2022/07/22 03:19:03;;;;;;;5.40;0.93;;;16.00;99.90;;;;;;4995228;28;20046;-81
2022/07/22 03:21:28;;;;;;;6.25;1.45;;;15.90;99.90;;;;;;4994281;28;20052;-80
2022/07/22 03:23:54;;;;;;;6.43;1.13;;;15.90;99.90;;;;;;4995316;28;20394;-80
2022/07/22 03:26:23;;;;;;;8.93;1.45;;;15.90;99.90;;;;;;4992808;28;20490;-79
2022/07/22 03:28:50;;;;;;;6.25;1.08;;;15.90;99.90;;;;;;4993871;28;20050;-80
2022/07/22 03:31:16;;;;;;;3.83;1.13;;;15.90;99.90;;;;;;4994121;28;20091;-80
2022/07/22 03:33:41;;;;;;;5.22;1.17;;;15.90;99.90;;;;;;4994988;28;20422;-79
2022/07/22 03:36:07;;;;;;;5.10;1.02;;;16.00;99.90;;;;;;4993616;28;20053;-80
2022/07/22 03:38:37;;;;;;;4.53;1.00;;;16.00;99.90;;;;;;4994093;28;20048;-80
2022/07/22 03:41:03;;;;;;;5.28;1.40;;;16.00;99.90;;;;;;4994964;28;20042;-79
2022/07/22 03:43:30;;;;;;;4.85;1.38;;;16.00;99.90;;;;;;4993660;28;20105;-79
2022/07/22 03:45:55;;;;;;;7.43;1.40;;;16.00;99.90;;;;;;4977512;28;20085;-80
2022/07/22 03:48:21;;;;;;;6.38;1.23;;;16.00;99.90;;;;;;4993831;28;20532;-80
2022/07/22 03:50:49;;;;;;;4.88;1.00;;;16.00;99.90;;;;;;4994564;28;20050;-80
2022/07/22 03:53:14;;;;;;;7.38;1.48;;;15.90;99.90;;;;;;4994560;28;20463;-78
2022/07/22 03:55:40;;;;;;;7.55;1.20;;;15.90;99.90;;;;;;4994172;28;20125;-79
2022/07/22 03:58:06;;;;;;;3.47;1.30;;;16.00;99.90;;;;;;4993667;28;20042;-80
2022/07/22 04:00:32;;;;;;;6.13;1.13;;;15.90;99.90;;;;;;4994235;28;20084;-80
2022/07/22 04:02:57;;;;;;;6.00;1.20;;;15.90;99.90;;;;;;4994545;28;20050;-79
2022/07/22 04:05:23;;;;;;;7.32;1.40;;;15.90;99.90;;;;;;4994323;28;20043;-78
2022/07/22 04:07:49;;;;;;;3.92;1.00;;;15.90;99.90;;;;;;4994616;28;20398;-79
2022/07/22 04:10:14;;;;;;;5.32;1.10;;;15.90;99.90;;;;;;4994478;28;20043;-79
2022/07/22 04:12:41;;;;;;;4.13;1.42;;;15.90;99.90;;;;;;4994309;28;20050;-78
2022/07/22 04:15:08;;;;;;;5.95;1.10;;;15.90;99.90;;;;;;4993119;28;20547;-79
2022/07/22 04:17:34;;;;;;;6.45;1.13;;;15.90;99.90;;;;;;4994211;28;20077;-79
2022/07/22 04:20:00;;;;;;;5.32;1.27;;;15.90;99.90;;;;;;4994030;28;20049;-79
2022/07/22 04:22:29;;;;;;;5.18;1.33;;;15.90;99.90;;;;;;4994513;28;20054;-79
2022/07/22 04:24:55;;;;;;;3.35;1.20;;;15.90;99.90;;;;;;4992620;28;20038;-80
2022/07/22 04:27:23;;;;;;;3.78;1.10;;;15.90;99.90;;;;;;4994147;28;20193;-79
2022/07/22 04:29:49;;;;;;;5.85;1.05;;;15.90;99.90;;;;;;4993996;28;20502;-79
2022/07/22 04:32:15;;;;;;;6.93;1.20;;;15.90;99.90;;;;;;4993868;28;20050;-80
2022/07/22 04:34:41;;;;;;;8.15;1.20;;;15.90;99.90;;;;;;4993100;28;20065;-79
2022/07/22 04:37:07;;;;;;;8.95;1.30;;;15.90;99.90;;;;;;4993842;28;20050;-79
2022/07/22 04:39:33;;;;;;;5.10;1.08;;;15.90;99.90;;;;;;4994206;28;20050;-79
2022/07/22 04:41:58;;;;;;;6.80;1.20;;;15.90;99.90;;;;;;4976722;28;20042;-78
2022/07/22 04:44:24;;;;;;;2.17;0.93;;;15.90;99.90;;;;;;4992704;28;20056;-79
2022/07/22 04:46:50;;;;;;;5.72;1.20;;;15.90;99.90;;;;;;4992611;28;20445;-79
2022/07/22 04:49:15;;;;;;;4.95;1.40;;;15.90;99.90;;;;;;4993677;28;20058;-79
2022/07/22 04:51:41;;;;;;;4.38;1.17;;;15.90;99.90;;;;;;4994179;28;20062;-81
2022/07/22 04:54:07;;;;;;;6.57;1.10;;;15.90;99.90;;;;;;4992943;28;20049;-77
2022/07/22 04:56:32;;;;;;;7.22;1.80;;;15.90;99.90;;;;;;4993311;28;20042;-78
2022/07/22 04:58:58;;;;;;;6.05;0.98;;;15.90;99.90;;;;;;4992814;28;20134;-81
2022/07/22 05:01:24;;;;;;;8.20;1.23;;;15.90;99.90;;;;;;4992765;28;20046;-79
2022/07/22 05:03:51;;;;;;;5.72;1.30;;;15.90;99.90;;;;;;4992322;28;20053;-77
2022/07/22 05:06:17;;;;;;;4.78;1.02;;;15.90;99.90;;;;;;4993993;28;20096;-79
2022/07/22 05:08:43;;;;;;;4.97;1.13;;;15.90;99.90;;;;;;4993780;28;20129;-79
2022/07/22 05:11:09;;;;;;;5.30;1.05;;;15.90;99.90;;;;;;4992517;28;20057;-79
2022/07/22 05:13:34;;;;;;;4.78;1.30;;;15.90;99.90;;;;;;4993554;28;20046;-80
2022/07/22 05:16:07;;;;;;;3.78;1.10;;;16.00;99.90;;;;;;4992646;28;20077;-79
2022/07/22 05:18:33;;;;;;;9.68;1.52;;;16.00;99.90;;;;;;4993778;28;20050;-79
2022/07/22 05:20:59;;;;;;;8.20;1.20;;;16.00;99.90;;;;;;4992595;28;20078;-78
2022/07/22 05:23:24;;;;;;;5.13;0.95;;;16.00;99.90;;;;;;4976479;28;20156;-78
2022/07/22 05:25:50;;;;;;;6.05;1.40;;;16.00;99.90;;;;;;4991521;28;20136;-79
2022/07/22 05:28:16;;;;;;;5.38;0.95;;;16.00;99.90;;;;;;4993674;28;20058;-79
2022/07/22 05:30:41;;;;;;;3.10;0.77;;;16.00;99.90;;;;;;4992268;28;20498;-80
2022/07/22 05:33:07;;;;;;;7.43;1.30;;;16.00;99.90;;;;;;4993243;28;20105;-80
2022/07/22 05:35:33;;;;;;;4.85;1.00;;;16.00;99.90;;;;;;4993519;28;20038;-79
2022/07/22 05:37:58;;;;;;;4.15;0.80;;;16.00;99.90;;;;;;4993630;28;20053;-79
2022/07/22 05:40:24;;;;;;;4.00;0.90;;;16.00;99.90;;;;;;4992367;28;20482;-80
2022/07/22 05:42:50;;;;;;;4.30;0.80;;;16.00;99.90;;;;;;4993566;28;20050;-80
2022/07/22 05:45:15;;;;;;;4.90;0.80;;;16.00;99.90;;;;;;4993264;28;20058;-79
2022/07/22 05:47:41;;;;;;;3.13;0.80;;;16.10;99.90;;;;;;4993194;28;20081;-79
2022/07/22 05:50:07;;;;;;;4.93;0.90;;;16.10;99.90;;;;;;4995349;28;20050;-80
2022/07/22 05:52:36;;;;;;;2.58;0.88;;;16.10;99.90;;;;;;4997438;28;20054;-79
2022/07/22 05:55:03;;;;;;;2.40;0.80;;;16.10;99.90;;;;;;4995314;28;20196;-79
2022/07/22 05:57:28;;;;;;;6.05;0.95;;;16.10;99.90;;;;;;4995513;28;20054;-78
2022/07/22 05:59:56;;;;;;;4.32;1.00;;;16.10;99.90;;;;;;4995682;28;20062;-79
2022/07/22 06:02:22;;;;;;;7.28;1.02;;;16.10;99.90;;;;;;4995930;28;20042;-80
2022/07/22 06:04:48;;;;;;;6.22;1.33;;;16.10;99.90;;;;;;4996746;28;20506;-78
2022/07/22 06:07:14;;;;;;;5.88;1.30;;;16.10;99.90;;;;;;4996788;28;20388;-79
2022/07/22 06:09:40;;;;;;;4.28;0.90;;;16.10;99.90;;;;;;4996592;28;20498;-79
2022/07/22 06:12:06;;;;;;;5.13;0.95;;;16.10;99.90;;;;;;4996607;28;20118;-79
2022/07/22 06:14:32;;;;;;;6.40;0.90;;;16.10;99.90;;;;;;4996470;28;20046;-78
2022/07/22 06:16:57;;;;;;;3.53;0.85;;;16.10;99.90;;;;;;4995159;28;20058;-78
2022/07/22 06:19:24;;;;;;;4.53;0.90;;;16.20;99.90;;;;;;4995356;28;20056;-78
2022/07/22 06:21:50;;;;;;;3.65;0.88;;;16.10;99.90;;;;;;4996247;28;20517;-79
2022/07/22 06:24:16;;;;;;;3.92;0.80;;;16.10;99.90;;;;;;4996364;28;20046;-78
2022/07/22 06:26:42;;;;;;;3.70;0.80;;;16.20;99.90;;;;;;4995778;28;20050;-78
2022/07/22 06:29:08;;;;;;;3.67;0.80;;;16.20;99.90;;;;;;4996240;28;20133;-77
2022/07/22 06:31:33;;;;;;;1.85;0.73;;;16.20;99.90;;;;;;4994811;28;20548;-78
2022/07/22 06:33:59;;;;;;;4.32;0.90;;;16.20;99.90;;;;;;4995091;28;20081;-79
2022/07/22 06:36:25;;;;;;;4.30;0.95;;;16.20;99.90;;;;;;4996248;28;20053;-78
2022/07/22 06:38:51;;;;;;;4.07;0.80;;;16.20;99.90;;;;;;4996340;28;20266;-77
2022/07/22 06:41:19;;;;;;;4.38;0.70;;;16.30;99.90;;;;;;4996113;28;20043;-77
2022/07/22 06:43:45;;;;;;;3.20;1.13;;;16.30;99.90;;;;;;4994807;28;20047;-77
2022/07/22 06:46:11;;;;;;;4.50;0.93;;;16.30;99.90;;;;;;4978845;28;20045;-77
2022/07/22 06:48:37;;;;;;;2.42;0.95;;;16.30;99.90;;;;;;4996142;28;20050;-78
2022/07/22 06:51:03;;;;;;;3.08;0.80;;;16.30;99.90;;;;;;4994703;28;20137;-76
2022/07/22 06:53:28;;;;;;;3.80;0.73;;;16.30;99.90;;;;;;4994665;28;20042;-78
2022/07/22 06:55:54;;;;;;;3.30;0.70;;;16.40;99.90;;;;;;4994377;28;20108;-78
2022/07/22 06:58:20;;;;;;;3.65;0.93;;;16.40;99.90;;;;;;4994488;28;20129;-78
2022/07/22 07:00:46;;;;;;;1.33;0.57;;;16.40;99.90;;;;;;4994602;28;20060;-78
2022/07/22 07:03:12;;;;;;;4.57;0.70;;;16.50;99.90;;;;;;4995627;28;20116;-79
2022/07/22 07:05:37;;;;;;;2.67;0.70;;;16.50;99.90;;;;;;4978383;28;20038;-78
2022/07/22 07:08:03;;;;;;;3.20;0.70;;;16.50;99.90;;;;;;4995614;28;20046;-77
2022/07/22 07:10:29;;;;;;;2.05;0.90;;;16.50;99.90;;;;;;4995695;28;20403;-78
2022/07/22 07:12:57;;;;;;;4.38;0.98;;;16.50;99.90;;;;;;4995367;28;20126;-79
2022/07/22 07:15:23;;;;;;;2.78;0.63;;;16.60;99.90;;;;;;4995718;28;20046;-78
2022/07/22 07:17:49;;;;;;;4.38;0.60;;;16.60;99.90;;;;;;4994894;28;20478;-78
2022/07/22 07:20:14;;;;;;;2.85;0.90;;;16.60;99.90;;;;;;4995359;28;20046;-78
2022/07/22 07:22:40;;;;;;;1.40;0.60;;;16.70;99.90;;;;;;4994539;28;20188;-80
2022/07/22 07:25:08;;;;;;;3.30;0.80;;;16.70;99.90;;;;;;4994474;28;20069;-79
2022/07/22 07:27:34;;;;;;;6.70;1.30;;;16.70;99.90;;;;;;4995160;28;20066;-77
2022/07/22 07:30:00;;;;;;;5.20;0.73;;;16.70;99.90;;;;;;4978152;28;20141;-77
2022/07/22 07:32:26;;;;;;;2.60;0.63;;;16.60;99.90;;;;;;4995030;28;20038;-77
2022/07/22 07:34:52;;;;;;;2.13;1.10;;;16.70;99.90;;;;;;4995540;28;20136;-78
2022/07/22 07:37:18;;;;;;;3.22;0.60;;;16.70;99.90;;;;;;4995396;28;20047;-79
2022/07/22 07:39:43;;;;;;;2.45;0.60;;;16.70;99.90;;;;;;4994086;28;20043;-78
2022/07/22 07:42:09;;;;;;;4.13;0.75;;;16.80;99.90;;;;;;4994885;28;20042;-78
2022/07/22 07:44:35;;;;;;;3.20;0.70;;;16.80;99.90;;;;;;4995256;28;20058;-79
2022/07/22 07:47:01;;;;;;;3.70;0.60;;;16.80;99.90;;;;;;4995380;28;20039;-79
2022/07/22 07:49:26;;;;;;;1.73;0.70;;;16.90;99.90;;;;;;4993625;28;20544;-79
2022/07/22 07:51:52;;;;;;;1.98;0.55;;;16.90;99.90;;;;;;4995032;28;20054;-78
2022/07/22 07:54:18;;;;;;;1.48;0.60;;;16.90;99.90;;;;;;4994720;28;20046;-79
2022/07/22 07:56:44;;;;;;;3.47;0.70;;;17.00;99.90;;;;;;4993274;28;20058;-83
2022/07/22 07:59:10;;;;;;;3.15;0.65;;;17.00;99.90;;;;;;4977745;28;20141;-80
2022/07/22 08:01:35;;;;;;;2.58;0.60;;;17.10;99.90;;;;;;4993858;28;20100;-79
2022/07/22 08:04:01;;;;;;;2.90;0.52;;;17.20;99.90;;;;;;4994156;28;20140;-79
2022/07/22 08:06:27;;;;;;;2.55;0.60;;;17.20;99.90;;;;;;4994433;28;20047;-77
2022/07/22 08:08:53;;;;;;;2.35;0.52;;;17.20;99.90;;;;;;4994886;28;20093;-77
2022/07/22 08:11:19;;;;;;;3.35;0.70;;;17.20;99.90;;;;;;4994040;28;20141;-77
2022/07/22 08:13:44;;;;;;;3.60;0.73;;;17.30;99.90;;;;;;4995032;28;20078;-75
2022/07/22 08:16:10;;;;;;;3.33;0.50;;;17.30;99.90;;;;;;4994545;28;20088;-77
2022/07/22 08:18:36;;;;;;;3.38;0.40;;;17.40;99.90;;;;;;4977333;28;20150;-77
2022/07/22 08:21:02;;;;;;;2.15;0.77;;;17.40;99.90;;;;;;4994499;28;20046;-75
2022/07/22 08:23:28;;;;;;;1.42;0.40;;;17.40;99.90;;;;;;4994325;28;20053;-76
2022/07/22 08:25:53;;;;;;;3.00;0.50;;;17.40;99.90;;;;;;4993963;28;20042;-76
2022/07/22 08:28:19;;;;;;;2.65;0.60;;;17.30;99.90;;;;;;4992355;28;20050;-75
2022/07/22 08:30:45;;;;;;;2.97;0.45;;;17.40;99.90;;;;;;5017443;28;20046;-75
2022/07/22 08:33:11;;;;;;;2.00;0.50;;;17.40;99.90;;;;;;4976695;28;20057;-75
2022/07/22 08:35:37;;;;;;;3.72;0.50;;;17.40;99.90;;;;;;4993866;28;20046;-77
2022/07/22 08:38:02;;;;;;;2.42;0.50;;;17.40;99.90;;;;;;4993934;28;20131;-77
2022/07/22 08:40:28;;;;;;;3.03;0.60;;;17.40;99.90;;;;;;4993723;28;20046;-76
2022/07/22 08:42:54;;;;;;;3.25;0.63;;;17.40;99.90;;;;;;4993767;28;20068;-75
2022/07/22 08:45:20;;;;;;;1.98;0.50;;;17.40;99.90;;;;;;4992434;28;20038;-74
2022/07/22 08:47:47;;;;;;;1.17;0.30;;;17.40;99.90;;;;;;4993309;28;20506;-74
2022/07/22 08:50:13;;;;;;;2.83;0.60;;;17.40;99.90;;;;;;4992566;28;20129;-75
2022/07/22 08:52:39;;;;;;;1.67;0.40;;;17.40;99.90;;;;;;4991494;28;20168;-75
2022/07/22 08:55:06;;;;;;;2.95;0.50;;;17.40;99.90;;;;;;4992535;28;20046;-74
2022/07/22 08:57:31;;;;;;;2.75;0.60;;;17.50;99.90;;;;;;4976539;28;20058;-74
2022/07/22 08:59:59;;;;;;;2.15;0.50;;;17.50;99.90;;;;;;4992588;28;20525;-74
2022/07/22 09:02:26;;;;;;;2.03;0.45;;;17.60;99.90;;;;;;4993499;28;20160;-76
2022/07/22 09:04:53;;;;;;;2.38;0.50;;;17.70;99.90;;;;;;4992481;28;20046;-74
2022/07/22 09:07:26;;;;;;;0.93;0.40;;;17.70;99.90;;;;;;4992616;28;20521;-77
2022/07/22 09:09:52;;;;;;;2.03;0.40;;;17.70;99.90;;;;;;4991324;28;20050;-76
2022/07/22 09:12:19;;;;;;;4.10;0.80;;;17.70;99.90;;;;;;4993707;28;20049;-76
2022/07/22 09:14:51;;;;;;;2.03;0.50;;;17.70;99.90;;;;;;4976315;28;20042;-76
2022/07/22 09:17:35;;;;;;;0.70;0.40;;;17.70;99.90;;;;;;4992158;28;20513;-74
2022/07/22 09:20:05;;;;;;;1.65;0.40;;;17.70;99.90;;;;;;4990767;28;20046;-75
2022/07/22 09:22:37;;;;;;;2.70;0.63;;;17.70;99.90;;;;;;4993481;28;20046;-75
2022/07/22 09:25:26;;;;;;;6.15;0.70;;;17.70;99.90;;;;;;4988940;28;20046;-76
2022/07/22 09:27:54;;;;;;;1.27;0.60;;;17.70;99.90;;;;;;4991473;28;20066;-76
2022/07/22 09:30:23;;;;;;;2.90;0.50;;;17.70;99.90;;;;;;4987639;28;20050;-76
2022/07/22 09:32:50;;;;;;;2.50;0.50;;;17.70;99.90;;;;;;4992717;28;20498;-80
2022/07/22 09:35:16;;;;;;;1.60;0.65;;;17.70;99.90;;;;;;4991566;28;20076;-75
2022/07/22 09:37:50;;;;;;;6.30;0.60;;;17.70;99.90;;;;;;4991172;28;20054;-75
2022/07/22 09:40:19;;;;;;;3.55;0.60;;;17.70;99.90;;;;;;4989961;28;20492;-77
2022/07/22 09:43:06;;;;;;;4.30;0.60;;;17.60;99.90;;;;;;4989575;28;20054;-74
2022/07/22 09:45:33;;;;;;;4.60;0.50;;;17.60;99.90;;;;;;4992902;28;20086;-75
2022/07/22 09:48:01;;;;;;;2.58;0.50;;;17.60;99.90;;;;;;4991419;28;20047;-75
2022/07/22 09:50:32;;;;;;;2.85;0.60;;;17.50;99.90;;;;;;4993057;28;20046;-75
2022/07/22 09:52:59;;;;;;;3.03;0.55;;;17.50;99.90;;;;;;4990463;28;20082;-75
2022/07/22 09:55:27;;;;;;;1.83;0.50;;;17.50;99.90;;;;;;4991401;28;20038;-75
2022/07/22 09:57:54;;;;;;;2.90;0.60;;;17.50;99.90;;;;;;4991998;28;20501;-75
2022/07/22 10:00:24;;;;;;;2.80;0.65;;;17.50;99.90;;;;;;4993110;28;20540;-74
2022/07/22 10:02:58;;;;;;;1.10;0.60;;;17.50;99.90;;;;;;4990997;28;20409;-74
2022/07/22 10:05:30;;;;;;;3.28;0.50;;;17.50;99.90;;;;;;4992344;28;20089;-74
2022/07/22 10:07:57;;;;;;;1.77;0.50;;;17.50;99.90;;;;;;4986500;28;20073;-75
2022/07/22 10:10:26;;;;;;;1.67;0.40;;;17.50;99.90;;;;;;4988287;28;20089;-74
2022/07/22 10:12:54;;;;;;;1.45;0.40;;;17.50;99.90;;;;;;4989508;28;20054;-75
2022/07/22 10:15:20;;;;;;;3.22;0.70;;;17.50;99.90;;;;;;4990521;28;20053;-74
2022/07/22 10:17:49;;;;;;;3.72;0.50;;;17.50;99.90;;;;;;4986830;28;20046;-75
2022/07/22 10:20:20;;;;;;;3.00;0.60;;;17.60;99.90;;;;;;5007912;28;20046;-75
2022/07/22 10:22:50;;;;;;;1.67;0.50;;;17.60;99.90;;;;;;4989981;28;20050;-76
2022/07/22 10:25:18;;;;;;;2.47;0.40;;;17.50;99.90;;;;;;4994506;28;20038;-74
2022/07/22 10:28:05;;;;;;;3.08;0.60;;;17.60;99.90;;;;;;4996139;28;20572;-74
2022/07/22 10:30:40;;;;;;;2.55;0.50;;;17.60;99.90;;;;;;4993922;28;20046;-74
2022/07/22 10:33:06;;;;;;;3.08;0.43;;;17.60;99.90;;;;;;4995912;28;20038;-74
2022/07/22 10:35:34;;;;;;;4.60;0.50;;;17.60;99.90;;;;;;4995724;28;20050;-76
2022/07/22 10:38:02;;;;;;;2.30;0.75;;;17.60;99.90;;;;;;4996014;28;20052;-76
2022/07/22 10:40:32;;;;;;;1.40;0.47;;;17.60;99.90;;;;;;4995799;28;20046;-76
2022/07/22 10:42:58;;;;;;;1.88;0.50;;;17.70;99.90;;;;;;5019480;28;20051;-76
2022/07/22 10:45:40;;;;;;;3.08;0.50;;;17.70;99.90;;;;;;4995854;28;20397;-76
2022/07/22 10:48:09;;;;;;;1.05;0.40;;;17.80;99.90;;;;;;4995428;28;20482;-76
2022/07/22 10:50:38;;;;;;;2.35;0.50;;;17.80;99.90;;;;;;4995950;28;20069;-76
2022/07/22 10:53:11;;;;;;;1.80;0.50;;;17.90;99.90;;;;;;4994790;28;20058;-74
2022/07/22 10:55:38;;;;;;;2.03;0.60;;;17.90;99.90;;;;;;4993477;28;20134;-75
2022/07/22 10:58:35;;;;;;;0.70;0.40;;;18.00;99.90;;;;;;4994897;28;20054;-75
2022/07/22 11:01:07;;;;;;;3.13;0.60;;;18.10;99.90;;;;;;4996092;28;20058;-76
2022/07/22 11:03:34;;;;;;;4.28;0.60;;;18.10;99.90;;;;;;5027824;28;20132;-76
2022/07/22 11:06:21;;;;;;;2.65;0.40;;;18.10;99.90;;;;;;4995595;28;20042;-76
2022/07/22 11:08:50;;;;;;;1.95;0.40;;;18.10;99.90;;;;;;5027466;28;20046;-77
2022/07/22 11:11:16;;;;;;;2.95;0.60;;;18.10;99.90;;;;;;4995856;28;20130;-76
2022/07/22 11:13:44;;;;;;;3.50;0.57;;;18.20;99.90;;;;;;4994362;28;20545;-76
2022/07/22 11:16:21;;;;;;;1.70;0.60;;;18.20;99.90;;;;;;4994567;28;20039;-77
2022/07/22 11:19:04;;;;;;;1.35;0.40;;;18.30;99.90;;;;;;4995573;28;20054;-77
2022/07/22 11:21:32;;;;;;;1.80;0.50;;;18.40;99.90;;;;;;4995673;28;20045;-79
2022/07/22 11:24:02;;;;;;;6.32;0.50;;;18.40;99.90;;;;;;4978358;28;20411;-77
2022/07/22 11:26:45;;;;;;;2.45;0.45;;;18.40;99.90;;;;;;4994998;28;20429;-77
2022/07/22 11:29:24;;;;;;;2.00;0.50;;;18.40;99.90;;;;;;4995144;28;20499;-77
2022/07/22 11:31:50;;;;;;;2.70;0.50;;;18.40;99.90;;;;;;4995178;28;20058;-77
2022/07/22 11:34:16;;;;;;;1.52;0.45;;;18.40;99.90;;;;;;4994184;28;20180;-76
2022/07/22 11:36:44;;;;;;;2.97;0.45;;;18.40;99.90;;;;;;4995241;28;20108;-78
2022/07/22 11:39:12;;;;;;;4.22;0.60;;;18.40;99.90;;;;;;4994016;28;20043;-80
2022/07/22 11:41:39;;;;;;;3.90;0.65;;;18.50;99.90;;;;;;5027015;28;20437;-79
2022/07/22 11:44:06;;;;;;;2.53;0.50;;;18.40;99.90;;;;;;4994986;28;20383;-77
2022/07/22 11:46:40;;;;;;;3.30;0.50;;;18.40;99.90;;;;;;4993253;28;20042;-77
2022/07/22 11:49:07;;;;;;;2.50;0.50;;;18.40;99.90;;;;;;5027505;28;20053;-77
2022/07/22 11:51:35;;;;;;;3.03;0.65;;;18.40;99.90;;;;;;4977798;28;20047;-77
2022/07/22 11:54:01;;;;;;;3.78;0.82;;;18.40;99.90;;;;;;4994981;28;20054;-76
2022/07/22 11:56:28;;;;;;;1.13;0.52;;;18.50;99.90;;;;;;4994390;28;20042;-77
2022/07/22 11:58:55;;;;;;;1.23;0.47;;;18.50;99.90;;;;;;4994804;28;20038;-77
2022/07/22 12:01:29;;;;;;;1.25;0.50;;;18.50;99.90;;;;;;4977484;28;20050;-76
2022/07/22 12:04:21;;;;;;;2.35;0.40;;;18.50;99.90;;;;;;4993645;28;20376;-77
2022/07/22 12:06:47;;;;;;;1.13;0.60;;;18.50;99.90;;;;;;4994627;28;20116;-77
2022/07/22 12:09:23;;;;;;;1.35;0.45;;;18.60;99.90;;;;;;4977100;28;20539;-78
2022/07/22 12:11:55;;;;;;;0.47;0.30;;;18.60;99.90;;;;;;4994803;28;20054;-77
2022/07/22 12:14:24;;;;;;;2.08;0.63;;;18.60;99.90;;;;;;5026706;28;20146;-81
2022/07/22 12:17:10;;;;;;;2.35;0.40;;;18.70;99.90;;;;;;4994542;28;20096;-77
2022/07/22 12:19:37;;;;;;;2.13;0.40;;;18.70;99.90;;;;;;4994363;28;20046;-77
2022/07/22 12:22:09;;;;;;;0.65;0.30;;;18.60;99.90;;;;;;4994296;28;20052;-78
2022/07/22 12:24:40;;;;;;;1.40;0.40;;;18.70;99.90;;;;;;4995033;28;20080;-76
2022/07/22 12:27:11;;;;;;;2.90;0.30;;;18.70;99.90;;;;;;4993623;28;20486;-78
2022/07/22 12:29:36;;;;;;;1.50;0.63;;;18.80;99.90;;;;;;4994224;28;20054;-77
2022/07/22 12:32:06;;;;;;;1.85;0.32;;;18.80;99.90;;;;;;4994203;28;20096;-78
2022/07/22 12:34:42;;;;;;;2.45;0.30;;;18.80;99.90;;;;;;4994379;28;20042;-76
2022/07/22 12:37:27;;;;;;;1.50;0.40;;;18.80;99.90;;;;;;4977167;28;20042;-76
2022/07/22 12:40:15;;;;;;;3.00;0.40;;;18.80;99.90;;;;;;4992969;28;20086;-77
2022/07/22 12:42:43;;;;;;;1.40;0.40;;;18.70;99.90;;;;;;4994050;28;20081;-77
2022/07/22 12:45:14;;;;;;;2.10;0.43;;;18.70;99.90;;;;;;4994232;28;20050;-77
2022/07/22 12:47:45;;;;;;;2.33;0.45;;;18.70;99.90;;;;;;4994461;28;20061;-77